Time;durP1;ratioP1;P1;durP2;ratioP2;P2;SDS_P1;SDS_P2;PMS_P1;PMS_P2;Temp;Humidity;BMP_temperature;BMP_pressure;BME280_temperature;BME280_humidity;BME280_pressure;Samples;Min_cycle;Max_cycle;Signal;HPM_P1;HPM_P2
2021/05/10 00:00:38;;;;;;;12.60;7.87;;;15.00;99.90;;;;;;5043942;28;20194;-89
2021/05/10 00:03:04;;;;;;;13.33;7.27;;;14.90;99.90;;;;;;5035646;28;20230;-89
2021/05/10 00:05:30;;;;;;;11.23;7.80;;;14.80;99.90;;;;;;5024688;28;20238;-88
2021/05/10 00:07:56;;;;;;;10.00;6.43;;;14.60;99.90;;;;;;5025140;28;20230;-91
2021/05/10 00:10:22;;;;;;;11.63;7.73;;;14.60;99.90;;;;;;5023069;28;20243;-89
2021/05/10 00:12:48;;;;;;;11.37;7.03;;;14.70;99.90;;;;;;5008353;28;20198;-88
2021/05/10 00:15:15;;;;;;;12.00;7.27;;;14.70;99.90;;;;;;5008378;28;20688;-89
2021/05/10 00:17:41;;;;;;;10.90;8.47;;;14.80;99.90;;;;;;5006202;28;20240;-88
2021/05/10 00:20:08;;;;;;;8.93;6.47;;;14.80;99.90;;;;;;5039581;28;20221;-89
2021/05/10 00:22:34;;;;;;;11.50;7.50;;;14.70;99.90;;;;;;5025256;28;20300;-89
2021/05/10 00:25:00;;;;;;;10.23;7.10;;;14.60;99.90;;;;;;5041929;28;20217;-89
2021/05/10 00:27:25;;;;;;;9.37;6.70;;;14.50;99.90;;;;;;5043633;28;20901;-89
2021/05/10 00:29:51;;;;;;;12.50;6.97;;;14.40;99.90;;;;;;5006469;28;20210;-90
2021/05/10 00:32:17;;;;;;;8.77;6.97;;;14.40;99.90;;;;;;5039270;28;20281;-88
2021/05/10 00:34:42;;;;;;;17.90;8.77;;;14.30;99.90;;;;;;5023425;28;21246;-88
2021/05/10 00:37:08;;;;;;;12.83;8.30;;;14.20;99.90;;;;;;5036551;28;20785;-88
2021/05/10 00:39:34;;;;;;;11.77;7.83;;;14.20;99.90;;;;;;5020367;28;20194;-88
2021/05/10 00:42:00;;;;;;;11.07;7.70;;;14.20;99.90;;;;;;5019475;28;20300;-89
2021/05/10 00:44:25;;;;;;;19.73;9.97;;;14.20;99.90;;;;;;5019341;28;20305;-88
2021/05/10 00:46:53;;;;;;;14.27;8.50;;;14.30;99.90;;;;;;5018807;28;20312;-88
2021/05/10 00:49:19;;;;;;;12.50;7.70;;;14.30;99.90;;;;;;5018991;28;20214;-88
2021/05/10 00:51:45;;;;;;;11.17;7.90;;;14.30;99.90;;;;;;5042170;28;20198;-90
2021/05/10 00:54:11;;;;;;;10.73;5.73;;;14.30;99.90;;;;;;5023053;28;20193;-89
2021/05/10 00:56:37;;;;;;;6.57;5.70;;;14.70;99.90;;;;;;5022470;28;20230;-89
2021/05/10 00:59:03;;;;;;;10.87;6.93;;;14.90;99.90;;;;;;5038778;28;20982;-88
2021/05/10 01:01:28;;;;;;;16.00;7.93;;;15.00;99.90;;;;;;5023413;28;20329;-89
2021/05/10 01:03:55;;;;;;;10.73;6.90;;;14.90;99.90;;;;;;5022521;28;20600;-88
2021/05/10 01:06:21;;;;;;;9.77;6.57;;;14.80;99.90;;;;;;5042613;28;20194;-89
2021/05/10 01:08:47;;;;;;;8.87;5.83;;;14.70;99.90;;;;;;5041510;28;20670;-88
2021/05/10 01:11:13;;;;;;;9.50;6.17;;;14.70;99.90;;;;;;5022964;28;20651;-89
2021/05/10 01:13:39;;;;;;;10.73;7.00;;;14.80;99.90;;;;;;5027422;28;20228;-89
2021/05/10 01:16:05;;;;;;;11.93;7.03;;;14.80;99.90;;;;;;5026573;28;20233;-89
2021/05/10 01:18:32;;;;;;;10.10;5.70;;;14.90;99.90;;;;;;5027856;28;20654;-86
2021/05/10 01:20:59;;;;;;;9.23;6.23;;;14.90;99.90;;;;;;5044439;28;20305;-90
2021/05/10 01:23:25;;;;;;;9.80;6.93;;;14.90;99.90;;;;;;5041831;28;20229;-90
2021/05/10 01:25:51;;;;;;;8.53;5.80;;;14.90;99.90;;;;;;5022165;28;20324;-87
2021/05/10 01:28:17;;;;;;;7.87;4.77;;;15.00;99.90;;;;;;5005779;28;20232;-88
2021/05/10 01:30:48;;;;;;;5.60;4.00;;;15.20;99.90;;;;;;5021722;28;20700;-86
2021/05/10 01:33:14;;;;;;;4.97;4.30;;;15.30;99.90;;;;;;5023264;28;20186;-89
2021/05/10 01:35:42;;;;;;;5.80;4.73;;;15.30;99.90;;;;;;5005995;28;20268;-88
2021/05/10 01:38:08;;;;;;;6.23;4.00;;;15.30;99.90;;;;;;5031468;28;20346;-91
2021/05/10 01:40:35;;;;;;;8.20;4.27;;;15.40;99.90;;;;;;5021704;28;20222;-90
2021/05/10 01:43:00;;;;;;;5.73;4.17;;;15.30;99.90;;;;;;5022446;28;20224;-88
2021/05/10 01:45:26;;;;;;;7.97;4.93;;;15.30;99.90;;;;;;5008152;28;20190;-89
2021/05/10 01:48:04;;;;;;;7.77;3.57;;;15.40;99.90;;;;;;4991174;28;20218;-90
2021/05/10 01:50:31;;;;;;;4.57;3.70;;;15.40;99.90;;;;;;5024273;28;20899;-90
2021/05/10 01:52:57;;;;;;;5.37;3.40;;;15.40;99.90;;;;;;5043060;28;20296;-89
2021/05/10 01:55:24;;;;;;;6.07;3.93;;;15.40;99.90;;;;;;5043126;28;20232;-88
2021/05/10 01:58:08;;;;;;;4.67;4.20;;;15.40;99.90;;;;;;5024689;28;20264;-89
2021/05/10 02:00:37;;;;;;;5.50;3.50;;;15.40;99.90;;;;;;5027669;28;20305;-87
2021/05/10 02:03:05;;;;;;;7.77;4.30;;;15.30;99.90;;;;;;5027736;28;20288;-89
2021/05/10 02:05:31;;;;;;;6.00;4.37;;;15.40;99.90;;;;;;5042255;28;20677;-90
2021/05/10 02:08:00;;;;;;;6.97;3.77;;;15.40;99.90;;;;;;4994748;28;20226;-91
2021/05/10 02:10:32;;;;;;;4.70;3.70;;;15.40;99.90;;;;;;5042186;28;20722;-87
2021/05/10 02:13:07;;;;;;;5.87;4.27;;;15.50;99.90;;;;;;5026114;28;20203;-89
2021/05/10 02:15:42;;;;;;;5.80;3.50;;;15.40;99.90;;;;;;5044878;28;20178;-91
2021/05/10 02:18:09;;;;;;;4.70;3.63;;;15.40;99.90;;;;;;5051523;28;20240;-89
2021/05/10 02:20:35;;;;;;;6.20;3.53;;;15.40;99.90;;;;;;5012334;28;20217;-89
2021/05/10 02:23:10;;;;;;;5.37;4.17;;;15.40;99.90;;;;;;5026449;28;20419;-90
2021/05/10 02:25:39;;;;;;;5.37;3.70;;;15.40;99.90;;;;;;5044051;28;20248;-89
2021/05/10 02:28:06;;;;;;;5.87;3.93;;;15.30;99.90;;;;;;5043046;28;20222;-89
2021/05/10 02:30:33;;;;;;;5.80;4.23;;;15.30;99.90;;;;;;5044932;28;20186;-89
2021/05/10 02:33:00;;;;;;;7.50;4.93;;;15.20;99.90;;;;;;5042059;28;21464;-89
2021/05/10 02:35:27;;;;;;;7.60;4.60;;;15.20;99.90;;;;;;5009804;28;20224;-88
2021/05/10 02:37:54;;;;;;;6.37;4.63;;;15.10;99.90;;;;;;5042282;28;20257;-89
2021/05/10 02:40:20;;;;;;;7.63;4.70;;;15.10;99.90;;;;;;5025806;28;20210;-89
2021/05/10 02:42:46;;;;;;;8.13;5.00;;;14.90;99.90;;;;;;5026301;28;20194;-89
2021/05/10 02:45:13;;;;;;;5.93;4.23;;;14.80;99.90;;;;;;5044402;28;20516;-89
2021/05/10 02:47:40;;;;;;;5.57;4.23;;;14.70;99.90;;;;;;5043841;28;20221;-89
2021/05/10 02:50:11;;;;;;;7.50;5.53;;;14.60;99.90;;;;;;4993662;28;20233;-89
2021/05/10 02:52:36;;;;;;;6.77;4.70;;;14.60;99.90;;;;;;5009903;28;20296;-89
2021/05/10 02:55:04;;;;;;;7.87;5.47;;;14.50;99.90;;;;;;5026471;28;20599;-91
2021/05/10 02:57:30;;;;;;;10.93;5.67;;;14.50;99.90;;;;;;5010729;28;20263;-89
2021/05/10 02:59:55;;;;;;;7.50;5.73;;;14.50;99.90;;;;;;5024648;28;20589;-88
2021/05/10 03:02:21;;;;;;;9.63;7.03;;;14.40;99.90;;;;;;5024618;28;20230;-88
2021/05/10 03:04:47;;;;;;;7.37;5.77;;;14.40;99.90;;;;;;5024858;28;20226;-87
2021/05/10 03:07:13;;;;;;;15.00;7.00;;;14.40;99.90;;;;;;5025800;28;20308;-91
2021/05/10 03:09:38;;;;;;;9.53;5.33;;;14.40;99.90;;;;;;4993511;28;20197;-87
2021/05/10 03:12:05;;;;;;;9.03;6.13;;;14.40;99.90;;;;;;5025424;28;20222;-89
2021/05/10 03:14:30;;;;;;;9.10;6.47;;;14.40;99.90;;;;;;5032264;28;20226;-88
2021/05/10 03:16:56;;;;;;;7.40;4.97;;;14.40;99.90;;;;;;5008493;28;20578;-89
2021/05/10 03:19:22;;;;;;;8.67;6.63;;;14.30;99.90;;;;;;5024380;28;20214;-89
2021/05/10 03:21:48;;;;;;;10.90;6.33;;;14.30;99.90;;;;;;5042201;28;20218;-89
2021/05/10 03:24:14;;;;;;;11.27;6.03;;;14.40;99.90;;;;;;5009589;28;20316;-88
2021/05/10 03:26:40;;;;;;;8.70;6.37;;;14.40;99.90;;;;;;5025326;28;20694;-88
2021/05/10 03:29:08;;;;;;;10.60;6.00;;;14.40;99.90;;;;;;5041717;28;20222;-89
2021/05/10 03:31:34;;;;;;;7.40;5.73;;;14.40;99.90;;;;;;5041938;28;20225;-90
2021/05/10 03:34:01;;;;;;;9.23;5.53;;;14.30;99.90;;;;;;5024064;28;20214;-88
2021/05/10 03:36:27;;;;;;;7.03;6.00;;;14.30;99.90;;;;;;5042834;28;20296;-89
2021/05/10 03:38:53;;;;;;;13.07;8.50;;;14.30;99.90;;;;;;5025725;28;20206;-89
2021/05/10 03:41:19;;;;;;;13.17;5.20;;;14.30;99.90;;;;;;5041773;28;20221;-91
2021/05/10 03:43:45;;;;;;;7.10;6.40;;;14.30;99.90;;;;;;5042207;28;20216;-88
2021/05/10 03:46:11;;;;;;;8.53;5.43;;;14.30;99.90;;;;;;4992518;28;20222;-89
2021/05/10 03:48:37;;;;;;;8.43;5.23;;;14.30;99.90;;;;;;5009239;28;20189;-89
2021/05/10 03:51:03;;;;;;;9.97;5.87;;;14.20;99.90;;;;;;4992782;28;20221;-87
2021/05/10 03:53:28;;;;;;;14.27;7.17;;;14.20;99.90;;;;;;5025242;28;20245;-89
2021/05/10 03:55:54;;;;;;;7.17;5.30;;;14.20;99.90;;;;;;5009275;28;21286;-89
2021/05/10 03:58:20;;;;;;;12.00;6.77;;;14.20;99.90;;;;;;5024983;28;20287;-89
2021/05/10 04:00:45;;;;;;;13.27;6.27;;;14.20;99.90;;;;;;5024826;28;21049;-87
2021/05/10 04:03:13;;;;;;;8.37;6.27;;;14.20;99.90;;;;;;5042582;28;20202;-89
2021/05/10 04:11:01;;;;;;;8.60;5.37;;;14.10;99.90;;;;;;5041759;28;20217;-88
2021/05/10 04:13:48;;;;;;;7.60;5.17;;;14.10;99.90;;;;;;4999978;28;20217;-86
2021/05/10 04:16:14;;;;;;;9.50;5.43;;;14.10;99.90;;;;;;5014150;28;20234;-89
2021/05/10 04:18:39;;;;;;;9.77;6.57;;;14.20;99.90;;;;;;5007531;28;20214;-88
2021/05/10 04:21:05;;;;;;;8.83;5.57;;;14.30;99.90;;;;;;4994287;28;20198;-88
2021/05/10 04:23:31;;;;;;;6.00;5.23;;;14.30;99.90;;;;;;5024379;28;20753;-88
2021/05/10 04:25:57;;;;;;;7.40;5.93;;;14.30;99.90;;;;;;5024961;28;20339;-89
2021/05/10 04:28:24;;;;;;;7.40;5.63;;;14.40;99.90;;;;;;5024515;28;20214;-88
2021/05/10 04:30:52;;;;;;;10.83;5.77;;;14.40;99.90;;;;;;5044862;28;20564;-89
2021/05/10 04:33:28;;;;;;;8.43;6.40;;;14.60;99.90;;;;;;5029898;28;20192;-90
2021/05/10 04:35:54;;;;;;;8.67;5.60;;;14.60;99.90;;;;;;5028619;28;20225;-88
2021/05/10 04:38:20;;;;;;;7.57;6.53;;;14.70;99.90;;;;;;5028136;28;20291;-93
2021/05/10 04:40:46;;;;;;;11.40;7.10;;;14.80;99.90;;;;;;5037686;28;21044;-90
2021/05/10 04:43:12;;;;;;;11.93;6.70;;;14.80;99.90;;;;;;5041073;28;20232;-92
2021/05/10 04:45:38;;;;;;;13.27;6.67;;;14.80;99.90;;;;;;5029103;28;20255;-89
2021/05/10 04:48:04;;;;;;;6.80;4.70;;;14.90;99.90;;;;;;5028121;28;20234;-91
2021/05/10 04:50:30;;;;;;;8.30;5.83;;;14.90;99.90;;;;;;5027175;28;20224;-91
2021/05/10 04:52:56;;;;;;;12.07;6.70;;;15.10;99.90;;;;;;5028207;28;20973;-90
2021/05/10 04:55:22;;;;;;;12.60;7.83;;;15.20;99.90;;;;;;5006608;28;20261;-89
2021/05/10 04:57:48;;;;;;;10.73;5.53;;;15.20;99.90;;;;;;5010658;28;20209;-90
2021/05/10 05:00:14;;;;;;;7.53;5.50;;;15.20;99.90;;;;;;5028721;28;20229;-90
2021/05/10 05:02:40;;;;;;;8.80;6.40;;;15.20;99.90;;;;;;5027141;28;20222;-91
2021/05/10 05:05:09;;;;;;;8.83;5.67;;;15.30;99.90;;;;;;5018534;28;20222;-90
2021/05/10 05:07:35;;;;;;;9.50;5.57;;;15.30;99.90;;;;;;5043947;28;20222;-91
2021/05/10 05:10:02;;;;;;;8.67;6.00;;;15.30;99.90;;;;;;4994344;28;20222;-93
2021/05/10 05:12:27;;;;;;;9.17;6.30;;;15.40;99.90;;;;;;5045324;28;20205;-90
2021/05/10 05:14:53;;;;;;;9.30;5.93;;;15.40;99.90;;;;;;5027880;28;20218;-94
2021/05/10 05:17:19;;;;;;;9.97;7.13;;;15.50;99.90;;;;;;5046268;28;20229;-91
2021/05/10 05:19:45;;;;;;;10.50;6.83;;;15.50;99.90;;;;;;4994345;28;20241;-94
2021/05/10 05:22:10;;;;;;;9.67;6.17;;;15.50;99.90;;;;;;5027698;28;20267;-92
2021/05/10 05:24:36;;;;;;;7.97;5.80;;;15.50;99.90;;;;;;5028480;28;20229;-91
2021/05/10 05:27:03;;;;;;;8.13;6.63;;;15.60;99.90;;;;;;5017028;28;20230;-91
2021/05/10 05:29:28;;;;;;;5.17;4.13;;;15.60;99.90;;;;;;5033384;28;20275;-88
2021/05/10 05:31:56;;;;;;;6.63;4.33;;;15.70;99.90;;;;;;5038752;28;20222;-88
2021/05/10 05:34:22;;;;;;;5.70;5.03;;;15.80;99.90;;;;;;5027229;28;20313;-92
2021/05/10 05:36:48;;;;;;;8.47;3.50;;;16.00;99.90;;;;;;5039795;28;20206;-90
2021/05/10 05:39:14;;;;;;;5.80;4.80;;;16.20;99.90;;;;;;5043199;28;20178;-91
2021/05/10 05:41:43;;;;;;;10.57;5.07;;;16.40;99.90;;;;;;5007905;28;20599;-91
2021/05/10 05:44:09;;;;;;;5.97;4.43;;;16.50;99.90;;;;;;5010545;28;20590;-92
2021/05/10 05:46:44;;;;;;;5.23;4.20;;;16.70;99.90;;;;;;5029621;28;20261;-92
2021/05/10 05:49:10;;;;;;;3.13;2.90;;;16.90;99.90;;;;;;5047035;28;20324;-89
2021/05/10 05:51:36;;;;;;;4.87;3.20;;;17.00;99.90;;;;;;5032900;28;20282;-88
2021/05/10 05:54:03;;;;;;;4.07;2.93;;;17.00;99.90;;;;;;5035945;28;20210;-94
2021/05/10 05:56:30;;;;;;;4.33;2.97;;;17.00;99.90;;;;;;5046537;28;20222;-91
2021/05/10 05:58:56;;;;;;;4.80;2.77;;;17.10;99.90;;;;;;5044267;28;20736;-92
2021/05/10 06:01:24;;;;;;;4.20;2.80;;;17.10;99.90;;;;;;5030900;28;20229;-91
2021/05/10 06:03:51;;;;;;;4.47;3.00;;;17.40;99.90;;;;;;5035586;28;20210;-93
2021/05/10 06:06:17;;;;;;;5.53;3.20;;;17.50;99.90;;;;;;5045564;28;20189;-94
2021/05/10 06:08:43;;;;;;;3.77;2.60;;;17.60;99.90;;;;;;5046189;28;20217;-94
2021/05/10 06:11:09;;;;;;;2.73;2.00;;;17.70;99.90;;;;;;5049593;28;20701;-93
2021/05/10 06:13:36;;;;;;;5.90;3.20;;;17.70;99.90;;;;;;5030474;28;20226;-92
2021/05/10 06:16:03;;;;;;;4.00;2.67;;;17.70;99.90;;;;;;5044128;28;20267;-93
2021/05/10 06:18:29;;;;;;;2.20;2.03;;;17.80;99.90;;;;;;5047982;28;20182;-93
2021/05/10 06:21:00;;;;;;;2.93;2.10;;;17.80;99.90;;;;;;5043212;28;20220;-91
2021/05/10 06:23:26;;;;;;;3.47;2.33;;;17.80;99.90;;;;;;5046681;28;20238;-93
2021/05/10 06:25:52;;;;;;;3.20;2.03;;;17.80;99.90;;;;;;5010457;28;20221;-91
2021/05/10 06:28:18;;;;;;;4.57;2.67;;;17.80;99.90;;;;;;5026219;28;20213;-92
2021/05/10 06:30:44;;;;;;;3.07;2.00;;;17.80;99.90;;;;;;5025380;28;20209;-93
2021/05/10 06:33:10;;;;;;;2.77;1.93;;;17.80;99.90;;;;;;4994196;28;20285;-93
2021/05/10 06:35:35;;;;;;;4.20;2.17;;;17.80;99.90;;;;;;5026085;28;20232;-91
2021/05/10 06:38:01;;;;;;;3.33;2.43;;;17.70;99.90;;;;;;5009951;28;20280;-92
2021/05/10 06:40:29;;;;;;;2.53;2.33;;;17.70;99.90;;;;;;5044287;28;20279;-91
2021/05/10 06:42:55;;;;;;;2.37;2.13;;;17.70;99.90;;;;;;5051373;28;20197;-89
2021/05/10 06:45:21;;;;;;;2.83;2.37;;;17.70;99.90;;;;;;5045003;28;20292;-92
2021/05/10 06:47:46;;;;;;;4.70;2.67;;;17.60;99.90;;;;;;5026294;28;21020;-92
2021/05/10 06:50:12;;;;;;;3.10;2.80;;;17.50;99.90;;;;;;5010977;28;20309;-92
2021/05/10 06:52:38;;;;;;;3.83;2.83;;;17.50;99.90;;;;;;5012342;28;20222;-92
2021/05/10 06:55:06;;;;;;;3.37;2.30;;;17.40;99.90;;;;;;5022396;28;20232;-91
2021/05/10 06:57:32;;;;;;;7.97;2.50;;;17.30;99.90;;;;;;5049796;28;20210;-93
2021/05/10 06:59:58;;;;;;;4.63;2.93;;;17.20;99.90;;;;;;5025222;28;20213;-91
2021/05/10 07:02:24;;;;;;;5.33;3.13;;;17.10;99.90;;;;;;5024118;28;20760;-91
2021/05/10 07:04:51;;;;;;;3.53;2.53;;;17.00;99.90;;;;;;5022130;28;20225;-92
2021/05/10 07:07:17;;;;;;;2.33;2.00;;;16.90;99.90;;;;;;5011246;28;20221;-95
2021/05/10 07:09:43;;;;;;;2.63;2.27;;;16.70;99.90;;;;;;4993244;28;20187;-91
2021/05/10 07:12:11;;;;;;;3.70;1.97;;;16.50;99.90;;;;;;5047773;28;20194;-93
2021/05/10 07:14:37;;;;;;;2.40;1.23;;;16.40;99.90;;;;;;5011612;28;20218;-92
2021/05/10 07:17:07;;;;;;;1.30;1.10;;;16.20;99.90;;;;;;5026647;28;20229;-94
2021/05/10 07:19:34;;;;;;;3.03;0.57;;;16.20;99.90;;;;;;5043245;28;20324;-94
2021/05/10 07:22:00;;;;;;;0.40;0.40;;;16.30;99.90;;;;;;5023858;28;20222;-93
2021/05/10 07:24:26;;;;;;;0.50;0.50;;;16.60;99.90;;;;;;5025664;28;20857;-91
2021/05/10 07:26:52;;;;;;;0.37;0.37;;;17.00;99.90;;;;;;5024614;28;20236;-91
2021/05/10 07:29:18;;;;;;;2.40;0.80;;;17.40;99.90;;;;;;5040991;28;20225;-91
2021/05/10 07:31:44;;;;;;;0.50;0.50;;;17.30;99.90;;;;;;5024259;28;20217;-90
2021/05/10 07:34:09;;;;;;;3.53;0.60;;;16.70;99.90;;;;;;5008655;28;20589;-92
2021/05/10 07:36:35;;;;;;;1.13;1.03;;;16.40;99.90;;;;;;5026196;28;20214;-91
2021/05/10 07:39:02;;;;;;;1.63;1.20;;;16.20;99.90;;;;;;5024784;28;20279;-91
2021/05/10 07:41:27;;;;;;;0.80;0.60;;;16.10;99.90;;;;;;5025578;28;20241;-91
2021/05/10 07:43:53;;;;;;;0.90;0.90;;;16.20;99.90;;;;;;4989085;28;20278;-89
2021/05/10 07:46:19;;;;;;;0.63;0.63;;;16.80;99.90;;;;;;5003215;28;20220;-94
2021/05/10 07:48:45;;;;;;;0.57;0.57;;;17.60;99.90;;;;;;5003432;28;20201;-91
2021/05/10 07:51:11;;;;;;;1.10;0.97;;;17.90;99.90;;;;;;5021807;28;20654;-91
2021/05/10 07:53:36;;;;;;;5.40;1.00;;;17.80;99.90;;;;;;4987934;28;20388;-90
2021/05/10 07:56:02;;;;;;;0.80;0.80;;;17.80;99.90;;;;;;5040602;28;20683;-91
2021/05/10 07:58:28;;;;;;;0.40;0.40;;;18.20;99.90;;;;;;5011741;28;20202;-91
2021/05/10 08:00:57;;;;;;;1.57;0.70;;;18.80;99.90;;;;;;5029853;28;20208;-90
2021/05/10 08:03:26;;;;;;;1.60;0.60;;;18.60;99.90;;;;;;5008627;28;20198;-88
2021/05/10 08:05:52;;;;;;;1.10;0.80;;;18.60;99.90;;;;;;5004062;28;20213;-91
2021/05/10 08:08:22;;;;;;;1.63;0.67;;;18.40;99.90;;;;;;5002729;28;20214;-91
2021/05/10 08:10:48;;;;;;;1.33;0.50;;;18.40;99.90;;;;;;5019720;28;20284;-93
2021/05/10 08:13:14;;;;;;;0.80;0.80;;;18.90;99.90;;;;;;5020912;28;20217;-91
2021/05/10 08:15:40;;;;;;;1.50;0.70;;;18.70;99.90;;;;;;5020854;28;20190;-93
2021/05/10 08:18:06;;;;;;;1.67;0.70;;;18.60;99.90;;;;;;5040762;28;20221;-93
2021/05/10 08:20:32;;;;;;;1.13;1.03;;;18.60;99.90;;;;;;5030756;28;20713;-90
2021/05/10 08:22:59;;;;;;;2.27;1.00;;;19.30;99.90;;;;;;5024051;28;20214;-95
2021/05/10 08:25:25;;;;;;;0.83;0.83;;;20.30;99.90;;;;;;5038890;28;20241;-91
2021/05/10 08:27:51;;;;;;;1.07;0.97;;;21.10;99.90;;;;;;5022470;28;20604;-92
2021/05/10 08:30:17;;;;;;;0.77;0.60;;;19.70;99.90;;;;;;5043518;28;20190;-92
2021/05/10 08:32:45;;;;;;;0.93;0.80;;;18.90;99.90;;;;;;5023551;28;20253;-91
2021/05/10 08:35:11;;;;;;;2.13;0.80;;;18.90;99.90;;;;;;5041164;28;20312;-93
2021/05/10 08:37:38;;;;;;;2.73;0.70;;;19.20;99.90;;;;;;5024360;28;20229;-95
2021/05/10 08:40:05;;;;;;;0.70;0.70;;;18.90;99.90;;;;;;5028709;28;20233;-92
2021/05/10 08:42:32;;;;;;;1.00;1.00;;;19.40;99.90;;;;;;5030541;28;20273;-93
2021/05/10 08:45:00;;;;;;;1.57;0.90;;;19.80;99.90;;;;;;5026337;28;20299;-94
2021/05/10 08:47:33;;;;;;;0.80;0.73;;;19.60;99.90;;;;;;5028571;28;20222;-92
2021/05/10 08:50:03;;;;;;;1.23;1.13;;;19.00;99.90;;;;;;5043974;28;20233;-92
2021/05/10 08:52:29;;;;;;;1.00;0.90;;;18.30;99.90;;;;;;5034386;28;20367;-91
2021/05/10 08:55:00;;;;;;;1.00;0.70;;;17.80;99.90;;;;;;5026641;28;20313;-92
2021/05/10 08:57:28;;;;;;;0.90;0.80;;;17.30;99.90;;;;;;5023828;28;20780;-94
2021/05/10 08:59:54;;;;;;;1.33;0.70;;;16.90;99.90;;;;;;5032205;28;20240;-92
2021/05/10 09:02:32;;;;;;;1.27;1.10;;;16.70;99.90;;;;;;5023050;28;20322;-91
2021/05/10 09:05:22;;;;;;;2.00;0.93;;;16.70;99.90;;;;;;5021379;28;20225;-91
2021/05/10 09:08:08;;;;;;;1.07;0.87;;;16.50;99.90;;;;;;5049866;28;20316;-92
2021/05/10 09:10:37;;;;;;;1.77;0.77;;;16.10;99.90;;;;;;5026002;28;20276;-93
2021/05/10 09:13:02;;;;;;;0.57;0.57;;;15.70;99.90;;;;;;5042625;28;20230;-93
2021/05/10 09:15:30;;;;;;;2.00;0.97;;;15.30;99.90;;;;;;5034045;28;20278;-93
2021/05/10 09:17:58;;;;;;;1.87;0.90;;;14.90;99.90;;;;;;5028800;28;20307;-92
2021/05/10 09:20:28;;;;;;;0.90;0.90;;;14.90;99.90;;;;;;5028780;28;20224;-92
2021/05/10 09:22:59;;;;;;;0.47;0.47;;;14.80;99.90;;;;;;5043994;28;20217;-92
2021/05/10 09:25:34;;;;;;;0.67;0.67;;;14.80;99.90;;;;;;5027570;28;20695;-91
2021/05/10 09:28:21;;;;;;;0.63;0.60;;;14.80;99.90;;;;;;5044227;28;20217;-91
2021/05/10 09:30:49;;;;;;;1.67;0.80;;;14.80;99.90;;;;;;5026526;28;20305;-91
2021/05/10 09:33:25;;;;;;;0.50;0.40;;;14.80;99.90;;;;;;5012689;28;20289;-93
2021/05/10 09:35:56;;;;;;;1.27;0.90;;;15.10;99.90;;;;;;5027832;28;20303;-89
2021/05/10 09:38:24;;;;;;;1.23;0.90;;;15.30;99.90;;;;;;5010724;28;20755;-91
2021/05/10 09:41:07;;;;;;;1.53;1.20;;;15.50;99.90;;;;;;4996500;28;20289;-93
2021/05/10 09:43:37;;;;;;;1.73;1.10;;;15.70;99.90;;;;;;5010002;28;20206;-92
2021/05/10 09:46:05;;;;;;;1.90;1.30;;;15.80;99.90;;;;;;5027329;28;20222;-92
2021/05/10 09:48:34;;;;;;;1.53;1.10;;;16.00;99.90;;;;;;5045419;28;20318;-90
2021/05/10 09:51:02;;;;;;;3.27;1.30;;;16.10;99.90;;;;;;5043372;28;20300;-91
2021/05/10 09:53:38;;;;;;;1.20;1.00;;;16.20;99.90;;;;;;5044081;28;20214;-91
2021/05/10 09:59:01;;;;;;;1.47;1.00;;;16.30;99.90;;;;;;5043975;28;20287;-90
2021/05/10 10:01:39;;;;;;;1.20;1.03;;;16.70;99.90;;;;;;5009414;28;20213;-89
2021/05/10 10:04:05;;;;;;;2.30;1.53;;;17.00;99.90;;;;;;5033984;28;20695;-93
2021/05/10 10:06:31;;;;;;;1.57;1.33;;;17.30;99.90;;;;;;5028297;28;20194;-92
2021/05/10 10:08:58;;;;;;;2.63;1.63;;;17.50;99.90;;;;;;5043482;28;20221;-89
2021/05/10 10:11:25;;;;;;;1.00;0.90;;;17.60;99.90;;;;;;5042688;28;20206;-90
2021/05/10 10:13:52;;;;;;;1.43;1.23;;;17.00;99.90;;;;;;5010878;28;20296;-93
2021/05/10 10:16:23;;;;;;;0.90;0.77;;;16.80;99.90;;;;;;5026390;28;20218;-91
2021/05/10 10:18:50;;;;;;;1.10;1.00;;;16.80;99.90;;;;;;5024762;28;21130;-91
2021/05/10 10:21:18;;;;;;;0.90;0.90;;;16.70;99.90;;;;;;5011379;28;20194;-90
2021/05/10 10:23:51;;;;;;;1.90;0.93;;;16.50;99.90;;;;;;5024064;28;20246;-90
2021/05/10 10:26:18;;;;;;;2.20;1.30;;;16.70;99.90;;;;;;5023751;28;20222;-92
2021/05/10 10:28:46;;;;;;;1.47;1.00;;;16.70;99.90;;;;;;5009681;28;20222;-89
2021/05/10 10:31:16;;;;;;;1.80;1.33;;;16.50;99.90;;;;;;5026944;28;20217;-93
2021/05/10 10:34:02;;;;;;;1.93;1.63;;;16.50;99.90;;;;;;5028688;28;20190;-89
2021/05/10 10:36:31;;;;;;;2.27;1.97;;;16.50;99.90;;;;;;5045627;28;20199;-90
2021/05/10 10:39:09;;;;;;;0.77;0.77;;;16.70;99.90;;;;;;5045323;28;20213;-93
2021/05/10 10:41:56;;;;;;;2.17;1.50;;;16.50;99.90;;;;;;5025194;28;20308;-94
2021/05/10 10:44:42;;;;;;;2.67;1.80;;;16.20;99.90;;;;;;5025637;28;20287;-92
2021/05/10 10:47:11;;;;;;;2.37;1.50;;;16.30;99.90;;;;;;5042865;28;20301;-91
2021/05/10 10:49:42;;;;;;;4.17;1.40;;;16.10;99.90;;;;;;5025374;28;20210;-92
2021/05/10 10:52:18;;;;;;;1.83;1.40;;;16.10;99.90;;;;;;5039408;28;20228;-91
2021/05/10 10:54:44;;;;;;;0.57;0.57;;;16.30;99.90;;;;;;5022083;28;20228;-90
2021/05/10 10:57:29;;;;;;;1.90;1.47;;;16.20;99.90;;;;;;5007760;28;20226;-91
2021/05/10 10:59:55;;;;;;;2.73;1.23;;;16.10;99.90;;;;;;5040558;28;20229;-93
2021/05/10 11:02:23;;;;;;;3.77;1.43;;;16.10;99.90;;;;;;5022805;28;20225;-92
2021/05/10 11:05:09;;;;;;;1.37;1.27;;;16.00;99.90;;;;;;5041584;28;20259;-93
2021/05/10 11:08:02;;;;;;;1.40;1.20;;;16.10;99.90;;;;;;5043170;28;20230;-88
2021/05/10 11:10:58;;;;;;;3.03;1.40;;;16.00;99.90;;;;;;5040131;28;20221;-92
2021/05/10 11:13:30;;;;;;;1.60;1.50;;;15.90;99.90;;;;;;5039014;28;20232;-90
2021/05/10 11:16:01;;;;;;;1.33;1.17;;;15.70;99.90;;;;;;5047542;28;20204;-92
2021/05/10 11:18:33;;;;;;;1.90;1.37;;;15.80;99.90;;;;;;5031353;28;20226;-91
2021/05/10 11:20:59;;;;;;;3.13;2.13;;;16.10;99.90;;;;;;5047185;28;20255;-90
2021/05/10 11:23:25;;;;;;;2.87;1.80;;;16.50;99.90;;;;;;5029271;28;20252;-93
2021/05/10 11:25:53;;;;;;;3.03;1.10;;;16.80;99.90;;;;;;5029986;28;20600;-93
2021/05/10 11:28:27;;;;;;;3.77;1.60;;;16.60;99.90;;;;;;5045591;28;20229;-92
2021/05/10 11:31:02;;;;;;;2.73;1.63;;;16.30;99.90;;;;;;5025379;28;20606;-91
2021/05/10 11:33:56;;;;;;;3.70;1.83;;;16.50;99.90;;;;;;5052489;28;20598;-92
2021/05/10 11:36:22;;;;;;;2.53;1.73;;;17.00;99.90;;;;;;5043232;28;20217;-93
2021/05/10 11:39:00;;;;;;;2.13;1.40;;;17.60;99.90;;;;;;5041392;28;20222;-89
2021/05/10 11:41:31;;;;;;;1.60;1.33;;;17.70;99.90;;;;;;5045945;28;20217;-89
2021/05/10 11:43:59;;;;;;;3.03;1.77;;;17.50;99.90;;;;;;5026588;28;20221;-93
2021/05/10 11:46:32;;;;;;;2.27;2.07;;;17.00;99.90;;;;;;5027580;28;20245;-87
2021/05/10 11:48:58;;;;;;;2.40;1.63;;;16.90;99.90;;;;;;5029894;28;20190;-90
2021/05/10 11:51:34;;;;;;;2.87;1.43;;;16.70;99.90;;;;;;5016874;28;20185;-90
2021/05/10 11:54:09;;;;;;;1.90;1.40;;;16.90;99.90;;;;;;5028341;28;20670;-92
2021/05/10 11:56:45;;;;;;;1.27;0.73;;;17.10;99.90;;;;;;5038928;28;20240;-90
2021/05/10 12:01:56;;;;;;;2.10;1.40;;;17.00;99.90;;;;;;5047757;28;20213;-94
2021/05/10 12:04:31;;;;;;;1.67;1.10;;;17.00;99.90;;;;;;5027437;28;20241;-92
2021/05/10 12:06:58;;;;;;;1.73;1.40;;;17.00;99.90;;;;;;5031209;28;20170;-90
2021/05/10 12:09:32;;;;;;;3.27;1.30;;;16.90;99.90;;;;;;5047279;28;20201;-92
2021/05/10 12:12:02;;;;;;;1.50;0.90;;;16.60;99.90;;;;;;5046742;28;20243;-92
2021/05/10 12:14:31;;;;;;;2.23;2.03;;;16.70;99.90;;;;;;5043274;28;20217;-90
2021/05/10 12:17:17;;;;;;;2.00;1.70;;;17.00;99.90;;;;;;5044271;28;20241;-93
2021/05/10 12:19:55;;;;;;;1.60;1.50;;;17.10;99.90;;;;;;5041467;28;20224;-93
2021/05/10 12:22:28;;;;;;;3.93;2.70;;;17.30;99.90;;;;;;5030251;28;20279;-93
2021/05/10 12:24:54;;;;;;;2.40;2.07;;;17.40;99.90;;;;;;5042826;28;20750;-90
2021/05/10 12:27:21;;;;;;;3.27;1.63;;;17.30;99.90;;;;;;5028400;28;20298;-91
2021/05/10 12:29:47;;;;;;;2.33;1.63;;;17.10;99.90;;;;;;5031274;28;20285;-93
2021/05/10 12:32:13;;;;;;;4.13;2.13;;;17.00;99.90;;;;;;5027585;28;20685;-94
2021/05/10 12:34:39;;;;;;;2.53;2.17;;;16.90;99.90;;;;;;5027258;28;20228;-93
2021/05/10 12:37:05;;;;;;;2.03;1.63;;;16.80;99.90;;;;;;5029851;28;20241;-89
2021/05/10 12:39:32;;;;;;;2.13;1.70;;;16.90;99.90;;;;;;5052074;28;20661;-90
2021/05/10 12:42:16;;;;;;;2.30;1.57;;;17.00;99.90;;;;;;5028131;28;20751;-89
2021/05/10 12:44:42;;;;;;;2.87;2.00;;;17.00;99.90;;;;;;5045879;28;20569;-88
2021/05/10 12:47:10;;;;;;;3.47;1.57;;;17.20;99.90;;;;;;5028039;28;20237;-93
2021/05/10 12:49:43;;;;;;;2.83;1.33;;;17.30;99.90;;;;;;5046007;28;20299;-91
2021/05/10 12:52:09;;;;;;;6.03;1.87;;;17.00;99.90;;;;;;5018089;28;20253;-89
2021/05/10 12:54:45;;;;;;;2.87;1.73;;;17.40;99.90;;;;;;5029644;28;20693;-93
2021/05/10 12:57:31;;;;;;;1.70;1.50;;;18.10;99.90;;;;;;5049741;28;20225;-94
2021/05/10 12:59:57;;;;;;;7.13;1.60;;;18.40;99.90;;;;;;5030919;28;20245;-90
2021/05/10 13:02:23;;;;;;;2.47;1.43;;;18.60;99.90;;;;;;5029511;28;20219;-90